WAX47M CYYT-EBLG
Flight info
| Callsign | WAX47M |
|---|---|
| Flight time | 5h 21m |
| Altitude | 41000 |
| Route | ELSIR DCT ALLRY/M086F400 DCT 51N050W 52N040W 53N030W 54N020W DCT DOGAL DCT BEXET/N0497F450 DCT NORLA DCT PEWBI DCT OXLOW M142 ROKKE M140 DVR/N0477F230 L18 VABIK Q70 KOK |
| Aircraft | C750/M-SBDE3FGHRWXY/S |
Departure
| Time | 2026-05-05 20:27 |
|---|---|
| Airport | St. John's International Airport (CYYT) |
Arrival
| Time | 2026-05-06 01:48 |
|---|---|
| Airport | Liège Airport (EBLG) |
| Time | Latitude | Longitude | Altitude | Speed | Heading |
|---|---|---|---|---|---|
| 2026-05-05 20:09 | 47.62022 | -52.73629 | 411 ft | 0 kts | 176° |
| 2026-05-05 20:24 | 47.62008 | -52.73641 | 411 ft | 4 kts | 248° |
| 2026-05-05 20:24 | 47.62022 | -52.73698 | 413 ft | 7 kts | 304° |
| 2026-05-05 20:25 | 47.62062 | -52.73710 | 413 ft | 6 kts | 5° |
| 2026-05-05 20:25 | 47.62126 | -52.73716 | 412 ft | 9 kts | 359° |
| 2026-05-05 20:25 | 47.62195 | -52.73721 | 411 ft | 10 kts | 354° |
| 2026-05-05 20:25 | 47.62263 | -52.73728 | 410 ft | 9 kts | 357° |
| 2026-05-05 20:26 | 47.62323 | -52.73749 | 411 ft | 8 kts | 322° |
| 2026-05-05 20:26 | 47.62380 | -52.73810 | 411 ft | 11 kts | 350° |
| 2026-05-05 20:26 | 47.62463 | -52.73768 | 409 ft | 14 kts | 25° |
| 2026-05-05 20:26 | 47.62524 | -52.73818 | 408 ft | 14 kts | 264° |
| 2026-05-05 20:27 | 47.62497 | -52.74312 | 419 ft | 92 kts | 266° |
| 2026-05-05 20:27 | 47.62433 | -52.75629 | 482 ft | 160 kts | 264° |
| 2026-05-05 20:27 | 47.62352 | -52.77446 | 1144 ft | 191 kts | 265° |
| 2026-05-05 20:27 | 47.62681 | -52.79227 | 2579 ft | 195 kts | 302° |
| 2026-05-05 20:28 | 47.63920 | -52.80091 | 3790 ft | 221 kts | 346° |
| 2026-05-05 20:28 | 47.65489 | -52.79673 | 4750 ft | 246 kts | 5° |
| 2026-05-05 20:28 | 47.67160 | -52.78976 | 5747 ft | 257 kts | 5° |
| 2026-05-05 20:28 | 47.68909 | -52.78249 | 6716 ft | 268 kts | 6° |
| 2026-05-05 20:29 | 47.70700 | -52.77499 | 7799 ft | 273 kts | 6° |
| 2026-05-05 20:29 | 47.72506 | -52.76856 | 8900 ft | 272 kts | 0° |
| 2026-05-05 20:29 | 47.74380 | -52.76372 | 10016 ft | 275 kts | 1° |
| 2026-05-05 20:29 | 47.76259 | -52.75879 | 10910 ft | 284 kts | 1° |
| 2026-05-05 20:30 | 47.78236 | -52.75224 | 11641 ft | 303 kts | 7° |
| 2026-05-05 20:30 | 47.80276 | -52.74362 | 12471 ft | 312 kts | 7° |
| 2026-05-05 20:30 | 47.82362 | -52.73488 | 13335 ft | 317 kts | 7° |
| 2026-05-05 20:30 | 47.84505 | -52.72588 | 14253 ft | 320 kts | 7° |
| 2026-05-05 20:31 | 47.86625 | -52.71688 | 15169 ft | 323 kts | 7° |
| 2026-05-05 20:31 | 47.88773 | -52.70777 | 16030 ft | 327 kts | 7° |
| 2026-05-05 20:31 | 47.90947 | -52.69852 | 16876 ft | 330 kts | 7° |
| 2026-05-05 20:31 | 47.93178 | -52.68908 | 17705 ft | 333 kts | 6° |
| 2026-05-05 20:32 | 47.95375 | -52.67971 | 18507 ft | 335 kts | 6° |
| 2026-05-05 20:32 | 47.97629 | -52.67013 | 19292 ft | 338 kts | 6° |
| 2026-05-05 20:32 | 47.99907 | -52.66049 | 19937 ft | 343 kts | 6° |
| 2026-05-05 20:32 | 48.02205 | -52.65074 | 20663 ft | 346 kts | 7° |
| 2026-05-05 20:33 | 48.04503 | -52.64099 | 21411 ft | 348 kts | 6° |
| 2026-05-05 20:33 | 48.06828 | -52.63110 | 22029 ft | 353 kts | 7° |
| 2026-05-05 20:33 | 48.09184 | -52.62109 | 22683 ft | 356 kts | 6° |
| 2026-05-05 20:33 | 48.11603 | -52.61076 | 23266 ft | 361 kts | 7° |
| 2026-05-05 20:34 | 48.14003 | -52.60048 | 23877 ft | 365 kts | 7° |
| 2026-05-05 20:34 | 48.16440 | -52.59005 | 24516 ft | 367 kts | 7° |
| 2026-05-05 20:34 | 48.18872 | -52.57954 | 25202 ft | 367 kts | 7° |
| 2026-05-05 20:34 | 48.21349 | -52.56891 | 25785 ft | 370 kts | 7° |
| 2026-05-05 20:35 | 48.23812 | -52.55827 | 26424 ft | 371 kts | 7° |
| 2026-05-05 20:35 | 48.26300 | -52.54755 | 26978 ft | 374 kts | 7° |
| 2026-05-05 20:35 | 48.28778 | -52.53686 | 27530 ft | 377 kts | 7° |
| 2026-05-05 20:35 | 48.31308 | -52.52592 | 28106 ft | 378 kts | 7° |
| 2026-05-05 20:36 | 48.33846 | -52.51493 | 28605 ft | 381 kts | 7° |
| 2026-05-05 20:36 | 48.36400 | -52.50389 | 29123 ft | 384 kts | 7° |
| 2026-05-05 20:36 | 48.38972 | -52.49274 | 29560 ft | 388 kts | 8° |
| 2026-05-05 20:36 | 48.41549 | -52.48157 | 30081 ft | 389 kts | 7° |
| 2026-05-05 20:37 | 48.44129 | -52.47037 | 30584 ft | 390 kts | 8° |
| 2026-05-05 20:37 | 48.46756 | -52.45893 | 31011 ft | 393 kts | 8° |
| 2026-05-05 20:37 | 48.49400 | -52.44745 | 31309 ft | 398 kts | 8° |
| 2026-05-05 20:37 | 48.52043 | -52.43594 | 31702 ft | 400 kts | 7° |
| 2026-05-05 20:38 | 48.54718 | -52.42423 | 31953 ft | 405 kts | 8° |
| 2026-05-05 20:38 | 48.57423 | -52.41248 | 32316 ft | 408 kts | 8° |
| 2026-05-05 20:38 | 48.60181 | -52.40036 | 32589 ft | 412 kts | 8° |
| 2026-05-05 20:38 | 48.62923 | -52.38841 | 32860 ft | 416 kts | 8° |
| 2026-05-05 20:39 | 48.65704 | -52.37621 | 33146 ft | 419 kts | 8° |
| 2026-05-05 20:39 | 48.68500 | -52.36391 | 33364 ft | 423 kts | 8° |
| 2026-05-05 20:39 | 48.71356 | -52.35140 | 33590 ft | 427 kts | 8° |
| 2026-05-05 20:39 | 48.74190 | -52.33890 | 33825 ft | 429 kts | 9° |
| 2026-05-05 20:40 | 48.77056 | -52.32630 | 34021 ft | 432 kts | 9° |
| 2026-05-05 20:40 | 48.79948 | -52.31359 | 34186 ft | 436 kts | 9° |
| 2026-05-05 20:40 | 48.82848 | -52.30074 | 34415 ft | 437 kts | 9° |
| 2026-05-05 20:40 | 48.85781 | -52.28783 | 34659 ft | 439 kts | 9° |
| 2026-05-05 20:41 | 48.88703 | -52.27491 | 34919 ft | 439 kts | 9° |
| 2026-05-05 20:41 | 48.91612 | -52.26199 | 35172 ft | 439 kts | 9° |
| 2026-05-05 20:41 | 48.94544 | -52.24902 | 35380 ft | 441 kts | 9° |
| 2026-05-05 20:41 | 48.97487 | -52.23595 | 35561 ft | 444 kts | 10° |
| 2026-05-05 20:42 | 49.00453 | -52.22281 | 35762 ft | 446 kts | 10° |
| 2026-05-05 20:42 | 49.03449 | -52.20946 | 36008 ft | 446 kts | 10° |
| 2026-05-05 20:42 | 49.06453 | -52.19606 | 36197 ft | 448 kts | 11° |
| 2026-05-05 20:42 | 49.09432 | -52.18276 | 36363 ft | 451 kts | 11° |
| 2026-05-05 20:43 | 49.12439 | -52.16934 | 36546 ft | 453 kts | 11° |
| 2026-05-05 20:43 | 49.15442 | -52.15590 | 36755 ft | 454 kts | 11° |
| 2026-05-05 20:43 | 49.18471 | -52.14231 | 36956 ft | 455 kts | 11° |
| 2026-05-05 20:43 | 49.21509 | -52.12870 | 37116 ft | 457 kts | 11° |
| 2026-05-05 20:44 | 49.24533 | -52.11514 | 37296 ft | 458 kts | 11° |
| 2026-05-05 20:44 | 49.27600 | -52.10131 | 37457 ft | 459 kts | 11° |
| 2026-05-05 20:44 | 49.30649 | -52.08759 | 37647 ft | 460 kts | 11° |
| 2026-05-05 20:44 | 49.33697 | -52.07388 | 37767 ft | 462 kts | 12° |
| 2026-05-05 20:45 | 49.39895 | -52.04585 | 38061 ft | 465 kts | 12° |
| 2026-05-05 20:45 | 49.42985 | -52.03189 | 38188 ft | 467 kts | 12° |
| 2026-05-05 20:45 | 49.46113 | -52.01768 | 38426 ft | 466 kts | 12° |
| 2026-05-05 20:46 | 49.49223 | -52.00402 | 38613 ft | 465 kts | 8° |
| 2026-05-05 20:46 | 49.52425 | -51.99981 | 38753 ft | 457 kts | 355° |
| 2026-05-05 20:46 | 49.55597 | -52.00007 | 38925 ft | 458 kts | 355° |
| 2026-05-05 20:46 | 49.58770 | -52.00004 | 39127 ft | 458 kts | 355° |
| 2026-05-05 20:47 | 49.61961 | -52.00002 | 39335 ft | 458 kts | 356° |
| 2026-05-05 20:47 | 49.65101 | -52.00003 | 39520 ft | 458 kts | 356° |
| 2026-05-05 20:47 | 49.68290 | -52.00003 | 39709 ft | 458 kts | 356° |
| 2026-05-05 20:47 | 49.71481 | -52.00003 | 39882 ft | 459 kts | 356° |
| 2026-05-05 20:48 | 49.77937 | -52.00001 | 39894 ft | 467 kts | 356° |
| 2026-05-05 20:48 | 49.84462 | -52.00005 | 39890 ft | 476 kts | 356° |
| 2026-05-05 20:49 | 49.91125 | -52.00001 | 39893 ft | 484 kts | 356° |
| 2026-05-05 20:49 | 49.97875 | -52.00000 | 39873 ft | 492 kts | 356° |
| 2026-05-05 20:50 | 50.04741 | -52.00002 | 39886 ft | 499 kts | 356° |
| 2026-05-05 20:50 | 50.11709 | -52.00002 | 39884 ft | 506 kts | 356° |
| 2026-05-05 20:51 | 50.18775 | -52.00002 | 39868 ft | 513 kts | 356° |
| 2026-05-05 20:51 | 50.25937 | -52.00001 | 39859 ft | 518 kts | 356° |
| 2026-05-05 20:52 | 50.33178 | -51.99999 | 39852 ft | 522 kts | 357° |
| 2026-05-05 20:52 | 50.40420 | -51.99999 | 39848 ft | 525 kts | 356° |
| 2026-05-05 20:53 | 50.47540 | -51.97970 | 39881 ft | 535 kts | 25° |
| 2026-05-05 20:53 | 50.50620 | -51.94583 | 39868 ft | 541 kts | 40° |
| 2026-05-05 20:53 | 50.52993 | -51.90089 | 39837 ft | 546 kts | 58° |
| 2026-05-05 20:54 | 50.54442 | -51.84559 | 39887 ft | 547 kts | 74° |
| 2026-05-05 20:54 | 50.55562 | -51.78893 | 39844 ft | 549 kts | 68° |
| 2026-05-05 20:54 | 50.58367 | -51.67769 | 39847 ft | 549 kts | 67° |
| 2026-05-05 20:55 | 50.61182 | -51.56807 | 39840 ft | 541 kts | 66° |
| 2026-05-05 20:55 | 50.63977 | -51.45875 | 39834 ft | 535 kts | 67° |
| 2026-05-05 20:56 | 50.66722 | -51.35092 | 39851 ft | 537 kts | 66° |
| 2026-05-05 20:56 | 50.69504 | -51.24121 | 39846 ft | 543 kts | 67° |
| 2026-05-05 20:57 | 50.72296 | -51.13045 | 39850 ft | 548 kts | 67° |
| 2026-05-05 20:57 | 50.75103 | -51.01846 | 39858 ft | 551 kts | 67° |
| 2026-05-05 20:58 | 50.77893 | -50.90654 | 39855 ft | 552 kts | 67° |
| 2026-05-05 20:58 | 50.80372 | -50.80698 | 39855 ft | 553 kts | 68° |
| 2026-05-05 20:59 | 50.83152 | -50.69433 | 39859 ft | 553 kts | 67° |
| 2026-05-05 20:59 | 50.85927 | -50.58144 | 39855 ft | 553 kts | 67° |
| 2026-05-05 21:00 | 50.88681 | -50.46896 | 39863 ft | 552 kts | 67° |
| 2026-05-05 21:00 | 50.91426 | -50.35618 | 39862 ft | 551 kts | 68° |
| 2026-05-05 21:01 | 50.94148 | -50.24369 | 39850 ft | 551 kts | 68° |
| 2026-05-05 21:01 | 50.96878 | -50.13035 | 39846 ft | 551 kts | 68° |
| 2026-05-05 21:02 | 50.99580 | -50.01754 | 39843 ft | 550 kts | 69° |
| 2026-05-05 21:02 | 51.01453 | -49.90048 | 39846 ft | 551 kts | 76° |
| 2026-05-05 21:03 | 51.03143 | -49.78268 | 39857 ft | 551 kts | 76° |
| 2026-05-05 21:03 | 51.04837 | -49.66412 | 39870 ft | 551 kts | 77° |
| 2026-05-05 21:04 | 51.06515 | -49.54582 | 39869 ft | 551 kts | 77° |
| 2026-05-05 21:04 | 51.08183 | -49.42729 | 39871 ft | 552 kts | 77° |
| 2026-05-05 21:05 | 51.09835 | -49.30890 | 39870 ft | 551 kts | 78° |
| 2026-05-05 21:05 | 51.11475 | -49.19043 | 39868 ft | 551 kts | 78° |
| 2026-05-05 21:06 | 51.13106 | -49.07164 | 39874 ft | 552 kts | 78° |
| 2026-05-05 21:06 | 51.14724 | -48.95292 | 39873 ft | 552 kts | 78° |
| 2026-05-05 21:07 | 51.16327 | -48.83429 | 39872 ft | 551 kts | 78° |
| 2026-05-05 21:07 | 51.17924 | -48.71504 | 39884 ft | 551 kts | 78° |
| 2026-05-05 21:08 | 51.19495 | -48.59681 | 39877 ft | 544 kts | 78° |
| 2026-05-05 21:08 | 51.21034 | -48.48012 | 39884 ft | 537 kts | 78° |
| 2026-05-05 21:09 | 51.22541 | -48.36495 | 39883 ft | 532 kts | 78° |
| 2026-05-05 21:09 | 51.24027 | -48.25043 | 39880 ft | 526 kts | 78° |
| 2026-05-05 21:10 | 51.25486 | -48.13705 | 39883 ft | 521 kts | 78° |
| 2026-05-05 21:10 | 51.26921 | -48.02448 | 39887 ft | 517 kts | 78° |
| 2026-05-05 21:11 | 51.28332 | -47.91307 | 39891 ft | 513 kts | 79° |
| 2026-05-05 21:11 | 51.29723 | -47.80215 | 39898 ft | 509 kts | 78° |
| 2026-05-05 21:12 | 51.31085 | -47.69279 | 39898 ft | 506 kts | 79° |
| 2026-05-05 21:12 | 51.32438 | -47.58332 | 39909 ft | 503 kts | 78° |
| 2026-05-05 21:13 | 51.33777 | -47.47416 | 39917 ft | 505 kts | 79° |
| 2026-05-05 21:13 | 51.35117 | -47.36375 | 39918 ft | 505 kts | 79° |
| 2026-05-05 21:14 | 51.36438 | -47.25426 | 39911 ft | 502 kts | 80° |
| 2026-05-05 21:14 | 51.37738 | -47.14546 | 39921 ft | 499 kts | 80° |
| 2026-05-05 21:15 | 51.39028 | -47.03664 | 39916 ft | 497 kts | 80° |
| 2026-05-05 21:15 | 51.40293 | -46.92887 | 39926 ft | 494 kts | 80° |
| 2026-05-05 21:16 | 51.41546 | -46.82140 | 39931 ft | 492 kts | 80° |
| 2026-05-05 21:16 | 51.42784 | -46.71429 | 39934 ft | 490 kts | 80° |
| 2026-05-05 21:17 | 51.44009 | -46.60743 | 39936 ft | 489 kts | 80° |
| 2026-05-05 21:17 | 51.45215 | -46.50125 | 39944 ft | 487 kts | 80° |
| 2026-05-05 21:18 | 51.46418 | -46.39452 | 39950 ft | 486 kts | 80° |
| 2026-05-05 21:18 | 51.47598 | -46.28891 | 39941 ft | 485 kts | 81° |
| 2026-05-05 21:19 | 51.48769 | -46.18306 | 39949 ft | 483 kts | 81° |
| 2026-05-05 21:19 | 51.49927 | -46.07771 | 39949 ft | 481 kts | 81° |
| 2026-05-05 21:20 | 51.51073 | -45.97240 | 39957 ft | 480 kts | 81° |
| 2026-05-05 21:20 | 51.52206 | -45.86740 | 39961 ft | 479 kts | 81° |
| 2026-05-05 21:21 | 51.53330 | -45.76236 | 39960 ft | 478 kts | 81° |
| 2026-05-05 21:21 | 51.54433 | -45.65824 | 39974 ft | 477 kts | 81° |
| 2026-05-05 21:22 | 51.55539 | -45.55308 | 39958 ft | 476 kts | 81° |
| 2026-05-05 21:22 | 51.56620 | -45.44930 | 39959 ft | 476 kts | 81° |
| 2026-05-05 21:23 | 51.57699 | -45.34459 | 39968 ft | 475 kts | 82° |
| 2026-05-05 21:23 | 51.58763 | -45.24063 | 39970 ft | 474 kts | 82° |
| 2026-05-05 21:24 | 51.59820 | -45.13631 | 39973 ft | 473 kts | 82° |
| 2026-05-05 21:24 | 51.60867 | -45.03210 | 39977 ft | 472 kts | 82° |
| 2026-05-05 21:25 | 51.61894 | -44.92881 | 39971 ft | 472 kts | 82° |
| 2026-05-05 21:25 | 51.62915 | -44.82524 | 39978 ft | 471 kts | 82° |
| 2026-05-05 21:26 | 51.63929 | -44.72134 | 39989 ft | 470 kts | 82° |
| 2026-05-05 21:26 | 51.64925 | -44.61830 | 39988 ft | 470 kts | 82° |
| 2026-05-05 21:27 | 51.65919 | -44.51447 | 39988 ft | 469 kts | 82° |
| 2026-05-05 21:27 | 51.66896 | -44.41163 | 40000 ft | 469 kts | 82° |
| 2026-05-05 21:28 | 51.67869 | -44.30812 | 40003 ft | 468 kts | 82° |
| 2026-05-05 21:28 | 51.68830 | -44.20472 | 40006 ft | 467 kts | 82° |
| 2026-05-05 21:29 | 51.69779 | -44.10173 | 40015 ft | 467 kts | 83° |
| 2026-05-05 21:29 | 51.70716 | -43.99894 | 40021 ft | 466 kts | 83° |
| 2026-05-05 21:30 | 51.71647 | -43.89571 | 40026 ft | 466 kts | 82° |
| 2026-05-05 21:30 | 51.72566 | -43.79297 | 40026 ft | 466 kts | 82° |
| 2026-05-05 21:31 | 51.73477 | -43.68999 | 40029 ft | 466 kts | 82° |
| 2026-05-05 21:31 | 51.74378 | -43.58715 | 40028 ft | 466 kts | 82° |
| 2026-05-05 21:32 | 51.75272 | -43.48413 | 40026 ft | 466 kts | 83° |
| 2026-05-05 21:32 | 51.76157 | -43.38090 | 40029 ft | 466 kts | 83° |
| 2026-05-05 21:33 | 51.77028 | -43.27808 | 40025 ft | 466 kts | 83° |
| 2026-05-05 21:33 | 51.77895 | -43.17470 | 40028 ft | 466 kts | 83° |
| 2026-05-05 21:34 | 51.78748 | -43.07201 | 40032 ft | 466 kts | 83° |
| 2026-05-05 21:34 | 51.79601 | -42.96825 | 40037 ft | 465 kts | 83° |
| 2026-05-05 21:35 | 51.80439 | -42.86519 | 40036 ft | 465 kts | 83° |
| 2026-05-05 21:35 | 51.81265 | -42.76227 | 40039 ft | 465 kts | 83° |
| 2026-05-05 21:36 | 51.82084 | -42.65899 | 40038 ft | 465 kts | 83° |
| 2026-05-05 21:36 | 51.82894 | -42.55580 | 40042 ft | 465 kts | 83° |
| 2026-05-05 21:37 | 51.83692 | -42.45303 | 40050 ft | 465 kts | 83° |
| 2026-05-05 21:37 | 51.84484 | -42.34979 | 40060 ft | 465 kts | 84° |
| 2026-05-05 21:38 | 51.85267 | -42.24643 | 40062 ft | 464 kts | 84° |
| 2026-05-05 21:38 | 51.86040 | -42.14322 | 40070 ft | 464 kts | 84° |
| 2026-05-05 21:39 | 51.86807 | -42.03957 | 40071 ft | 464 kts | 84° |
| 2026-05-05 21:39 | 51.87560 | -41.93648 | 40079 ft | 465 kts | 84° |
| 2026-05-05 21:40 | 51.88305 | -41.83325 | 40076 ft | 465 kts | 84° |
| 2026-05-05 21:40 | 51.89045 | -41.72967 | 40082 ft | 465 kts | 84° |
| 2026-05-05 21:41 | 51.89777 | -41.62564 | 40080 ft | 466 kts | 84° |
| 2026-05-05 21:41 | 51.90494 | -41.52222 | 40084 ft | 466 kts | 84° |
| 2026-05-05 21:42 | 51.91210 | -41.41800 | 40087 ft | 467 kts | 84° |
| 2026-05-05 21:42 | 51.91912 | -41.31419 | 40086 ft | 467 kts | 85° |
| 2026-05-05 21:43 | 51.92606 | -41.21023 | 40089 ft | 467 kts | 85° |
| 2026-05-05 21:43 | 51.93296 | -41.10556 | 40091 ft | 468 kts | 85° |
| 2026-05-05 21:44 | 51.93972 | -41.00157 | 40091 ft | 468 kts | 85° |
| 2026-05-05 21:44 | 51.94642 | -40.89708 | 40096 ft | 468 kts | 85° |
| 2026-05-05 21:45 | 51.95303 | -40.79240 | 40095 ft | 469 kts | 85° |
| 2026-05-05 21:45 | 51.95953 | -40.68779 | 40102 ft | 469 kts | 85° |
| 2026-05-05 21:46 | 51.96600 | -40.58257 | 40101 ft | 469 kts | 85° |
| 2026-05-05 21:46 | 51.97231 | -40.47803 | 40106 ft | 470 kts | 85° |
| 2026-05-05 21:47 | 51.97854 | -40.37324 | 40107 ft | 470 kts | 85° |
| 2026-05-05 21:47 | 51.98474 | -40.26757 | 40105 ft | 471 kts | 86° |
| 2026-05-05 21:48 | 51.99082 | -40.16249 | 40106 ft | 471 kts | 86° |
| 2026-05-05 21:48 | 51.99681 | -40.05696 | 40112 ft | 471 kts | 86° |
| 2026-05-05 21:49 | 52.00586 | -39.95229 | 40116 ft | 472 kts | 75° |
| 2026-05-05 21:49 | 52.02170 | -39.84967 | 40129 ft | 472 kts | 78° |
| 2026-05-05 21:50 | 52.03662 | -39.74588 | 40122 ft | 473 kts | 78° |
| 2026-05-05 21:50 | 52.05143 | -39.64190 | 40130 ft | 474 kts | 78° |
| 2026-05-05 21:51 | 52.06611 | -39.53814 | 40126 ft | 474 kts | 78° |
| 2026-05-05 21:51 | 52.08073 | -39.43405 | 40128 ft | 475 kts | 78° |
| 2026-05-05 21:52 | 52.10251 | -39.27764 | 40127 ft | 476 kts | 79° |
| 2026-05-05 21:53 | 52.11689 | -39.17331 | 40121 ft | 476 kts | 79° |
| 2026-05-05 21:53 | 52.13126 | -39.06853 | 40126 ft | 476 kts | 79° |
| 2026-05-05 21:54 | 52.14548 | -38.96403 | 40130 ft | 476 kts | 79° |
| 2026-05-05 21:54 | 52.15960 | -38.85939 | 40135 ft | 476 kts | 79° |
| 2026-05-05 21:55 | 52.17368 | -38.75455 | 40131 ft | 476 kts | 79° |
| 2026-05-05 21:55 | 52.18770 | -38.64928 | 40135 ft | 477 kts | 79° |
| 2026-05-05 21:56 | 52.20153 | -38.54452 | 40137 ft | 477 kts | 79° |
| 2026-05-05 21:56 | 52.21532 | -38.43946 | 40140 ft | 477 kts | 79° |
| 2026-05-05 21:57 | 52.22910 | -38.33371 | 40142 ft | 477 kts | 80° |
| 2026-05-05 21:57 | 52.24268 | -38.22869 | 40140 ft | 477 kts | 80° |
| 2026-05-05 21:58 | 52.25623 | -38.12307 | 40140 ft | 478 kts | 80° |
| 2026-05-05 21:58 | 52.26968 | -38.01733 | 40150 ft | 478 kts | 80° |
| 2026-05-05 21:59 | 52.28308 | -37.91127 | 40144 ft | 478 kts | 79° |
| 2026-05-05 21:59 | 52.29633 | -37.80572 | 40149 ft | 478 kts | 80° |
| 2026-05-05 22:00 | 52.30951 | -37.69967 | 40154 ft | 478 kts | 79° |
| 2026-05-05 22:00 | 52.32258 | -37.59378 | 40149 ft | 479 kts | 79° |
| 2026-05-05 22:01 | 52.33564 | -37.48720 | 40154 ft | 479 kts | 79° |
| 2026-05-05 22:01 | 52.34856 | -37.38090 | 40153 ft | 479 kts | 80° |
| 2026-05-05 22:02 | 52.36142 | -37.27427 | 40145 ft | 479 kts | 81° |
| 2026-05-05 22:02 | 52.37411 | -37.16810 | 40153 ft | 479 kts | 81° |
| 2026-05-05 22:03 | 52.38676 | -37.06145 | 40155 ft | 480 kts | 81° |
| 2026-05-05 22:03 | 52.39934 | -36.95446 | 40154 ft | 480 kts | 81° |
| 2026-05-05 22:04 | 52.41183 | -36.84738 | 40152 ft | 480 kts | 81° |
| 2026-05-05 22:04 | 52.42417 | -36.74075 | 40158 ft | 480 kts | 81° |
| 2026-05-05 22:05 | 52.43650 | -36.63340 | 40155 ft | 480 kts | 81° |
| 2026-05-05 22:05 | 52.44867 | -36.52632 | 40159 ft | 480 kts | 81° |
| 2026-05-05 22:06 | 52.46076 | -36.41910 | 40158 ft | 481 kts | 81° |
| 2026-05-05 22:06 | 52.47276 | -36.31191 | 40164 ft | 481 kts | 81° |
| 2026-05-05 22:07 | 52.48465 | -36.20454 | 40162 ft | 481 kts | 81° |
| 2026-05-05 22:07 | 52.49649 | -36.09697 | 40167 ft | 481 kts | 81° |
| 2026-05-05 22:08 | 52.50821 | -35.98934 | 40172 ft | 481 kts | 81° |
| 2026-05-05 22:08 | 52.51981 | -35.88186 | 40165 ft | 482 kts | 81° |
| 2026-05-05 22:09 | 52.53134 | -35.77416 | 40161 ft | 482 kts | 81° |
| 2026-05-05 22:09 | 52.54282 | -35.66597 | 40158 ft | 482 kts | 81° |
| 2026-05-05 22:10 | 52.55418 | -35.55772 | 40160 ft | 482 kts | 81° |
| 2026-05-05 22:10 | 52.56546 | -35.44941 | 40156 ft | 483 kts | 81° |
| 2026-05-05 22:11 | 52.57660 | -35.34133 | 40161 ft | 483 kts | 82° |
| 2026-05-05 22:11 | 52.58769 | -35.23289 | 40155 ft | 483 kts | 82° |
| 2026-05-05 22:12 | 52.59868 | -35.12433 | 40154 ft | 483 kts | 82° |
| 2026-05-05 22:12 | 52.60955 | -35.01586 | 40158 ft | 483 kts | 82° |
| 2026-05-05 22:13 | 52.62032 | -34.90743 | 40150 ft | 484 kts | 82° |
| 2026-05-05 22:13 | 52.63100 | -34.79887 | 40157 ft | 484 kts | 82° |
| 2026-05-05 22:14 | 52.64164 | -34.68948 | 40155 ft | 484 kts | 82° |
| 2026-05-05 22:14 | 52.65214 | -34.58067 | 40153 ft | 484 kts | 82° |
| 2026-05-05 22:15 | 52.66261 | -34.47101 | 40150 ft | 485 kts | 82° |
| 2026-05-05 22:15 | 52.67292 | -34.36180 | 40154 ft | 485 kts | 82° |
| 2026-05-05 22:16 | 52.68314 | -34.25248 | 40149 ft | 485 kts | 82° |
| 2026-05-05 22:16 | 52.69325 | -34.14328 | 40142 ft | 485 kts | 82° |
| 2026-05-05 22:17 | 52.70323 | -34.03426 | 40139 ft | 486 kts | 82° |
| 2026-05-05 22:17 | 52.71323 | -33.92403 | 40134 ft | 486 kts | 82° |
| 2026-05-05 22:18 | 52.72305 | -33.81440 | 40146 ft | 486 kts | 82° |
| 2026-05-05 22:18 | 52.73278 | -33.70462 | 40143 ft | 486 kts | 82° |
| 2026-05-05 22:19 | 52.74240 | -33.59508 | 40144 ft | 486 kts | 82° |
| 2026-05-05 22:19 | 52.75194 | -33.48505 | 40140 ft | 487 kts | 82° |
| 2026-05-05 22:20 | 52.76140 | -33.37483 | 40143 ft | 487 kts | 82° |
| 2026-05-05 22:20 | 52.77079 | -33.26420 | 40131 ft | 487 kts | 83° |
| 2026-05-05 22:21 | 52.78001 | -33.15429 | 40148 ft | 487 kts | 83° |
| 2026-05-05 22:21 | 52.78917 | -33.04381 | 40139 ft | 488 kts | 83° |
| 2026-05-05 22:22 | 52.79824 | -32.93301 | 40142 ft | 488 kts | 83° |
| 2026-05-05 22:22 | 52.80722 | -32.82225 | 40155 ft | 488 kts | 83° |
| 2026-05-05 22:23 | 52.81605 | -32.71203 | 40155 ft | 488 kts | 83° |
| 2026-05-05 22:23 | 52.82480 | -32.60115 | 40148 ft | 489 kts | 83° |
| 2026-05-05 22:24 | 52.83349 | -32.48994 | 40160 ft | 489 kts | 83° |
| 2026-05-05 22:24 | 52.84208 | -32.37869 | 40155 ft | 489 kts | 83° |
| 2026-05-05 22:25 | 52.85052 | -32.26780 | 40149 ft | 490 kts | 84° |
| 2026-05-05 22:25 | 52.85891 | -32.15618 | 40160 ft | 490 kts | 84° |
| 2026-05-05 22:26 | 52.86715 | -32.04522 | 40165 ft | 490 kts | 84° |
| 2026-05-05 22:26 | 52.87535 | -31.93350 | 40151 ft | 490 kts | 84° |
| 2026-05-05 22:27 | 52.88339 | -31.82199 | 40150 ft | 491 kts | 84° |
| 2026-05-05 22:27 | 52.89142 | -31.70975 | 40156 ft | 489 kts | 84° |
| 2026-05-05 22:28 | 52.89922 | -31.59877 | 40181 ft | 486 kts | 84° |
| 2026-05-05 22:28 | 52.90684 | -31.48877 | 40164 ft | 484 kts | 84° |
| 2026-05-05 22:29 | 52.91444 | -31.37807 | 40159 ft | 482 kts | 84° |
| 2026-05-05 22:29 | 52.92186 | -31.26849 | 40160 ft | 481 kts | 85° |
| 2026-05-05 22:30 | 52.92913 | -31.15900 | 40173 ft | 480 kts | 85° |
| 2026-05-05 22:30 | 52.93632 | -31.04950 | 40159 ft | 479 kts | 85° |
| 2026-05-05 22:31 | 52.94338 | -30.94027 | 40154 ft | 478 kts | 85° |
| 2026-05-05 22:31 | 52.95029 | -30.83176 | 40165 ft | 477 kts | 85° |
| 2026-05-05 22:32 | 52.95717 | -30.72251 | 40168 ft | 476 kts | 85° |
| 2026-05-05 22:32 | 52.96387 | -30.61428 | 40173 ft | 475 kts | 85° |
| 2026-05-05 22:33 | 52.97049 | -30.50573 | 40195 ft | 475 kts | 84° |
| 2026-05-05 22:33 | 52.97704 | -30.39669 | 40184 ft | 474 kts | 84° |
| 2026-05-05 22:34 | 52.98343 | -30.28872 | 40196 ft | 474 kts | 85° |
| 2026-05-05 22:34 | 52.98975 | -30.18010 | 40191 ft | 474 kts | 85° |
| 2026-05-05 22:35 | 52.99596 | -30.07152 | 40206 ft | 473 kts | 85° |
| 2026-05-05 22:35 | 53.00382 | -29.96397 | 40167 ft | 474 kts | 76° |
| 2026-05-05 22:36 | 53.02034 | -29.85844 | 40205 ft | 473 kts | 77° |
| 2026-05-05 22:36 | 53.03559 | -29.75243 | 40206 ft | 474 kts | 77° |
| 2026-05-05 22:37 | 53.05068 | -29.64632 | 40213 ft | 474 kts | 77° |
| 2026-05-05 22:37 | 53.06569 | -29.54002 | 40227 ft | 474 kts | 76° |
| 2026-05-05 22:38 | 53.08061 | -29.43360 | 40220 ft | 474 kts | 76° |
| 2026-05-05 22:38 | 53.09546 | -29.32691 | 40222 ft | 474 kts | 77° |
| 2026-05-05 22:39 | 53.11020 | -29.22020 | 40211 ft | 474 kts | 77° |
| 2026-05-05 22:39 | 53.12484 | -29.11342 | 40217 ft | 474 kts | 77° |
| 2026-05-05 22:40 | 53.13931 | -29.00731 | 40219 ft | 474 kts | 77° |
| 2026-05-05 22:40 | 53.15378 | -28.90030 | 40214 ft | 474 kts | 77° |
| 2026-05-05 22:41 | 53.16809 | -28.79376 | 40214 ft | 474 kts | 77° |
| 2026-05-05 22:41 | 53.18237 | -28.68657 | 40214 ft | 473 kts | 77° |
| 2026-05-05 22:42 | 53.19645 | -28.57992 | 40215 ft | 473 kts | 76° |
| 2026-05-05 22:42 | 53.21047 | -28.47318 | 40215 ft | 473 kts | 76° |
| 2026-05-05 22:43 | 53.22434 | -28.36693 | 40216 ft | 473 kts | 76° |
| 2026-05-05 22:43 | 53.23821 | -28.25968 | 40214 ft | 472 kts | 77° |
| 2026-05-05 22:44 | 53.25193 | -28.15282 | 40214 ft | 472 kts | 77° |
| 2026-05-05 22:44 | 53.26556 | -28.04586 | 40215 ft | 472 kts | 77° |
| 2026-05-05 22:45 | 53.27903 | -27.93913 | 40214 ft | 472 kts | 76° |
| 2026-05-05 22:45 | 53.29244 | -27.83220 | 40217 ft | 471 kts | 76° |
| 2026-05-05 22:46 | 53.30570 | -27.72581 | 40218 ft | 471 kts | 76° |
| 2026-05-05 22:46 | 53.31894 | -27.61861 | 40219 ft | 471 kts | 76° |
| 2026-05-05 22:47 | 53.33196 | -27.51236 | 40223 ft | 471 kts | 76° |
| 2026-05-05 22:47 | 53.34496 | -27.40540 | 40223 ft | 470 kts | 76° |
| 2026-05-05 22:48 | 53.35786 | -27.29838 | 40224 ft | 470 kts | 77° |
| 2026-05-05 22:48 | 53.37060 | -27.19190 | 40224 ft | 470 kts | 77° |
| 2026-05-05 22:49 | 53.38324 | -27.08538 | 40225 ft | 469 kts | 77° |
| 2026-05-05 22:49 | 53.39584 | -26.97829 | 40225 ft | 469 kts | 77° |
| 2026-05-05 22:50 | 53.40838 | -26.87114 | 40224 ft | 469 kts | 77° |
| 2026-05-05 22:50 | 53.42075 | -26.76423 | 40224 ft | 469 kts | 76° |
| 2026-05-05 22:51 | 53.43300 | -26.65751 | 40225 ft | 468 kts | 77° |
| 2026-05-05 22:51 | 53.44513 | -26.55105 | 40224 ft | 468 kts | 76° |
| 2026-05-05 22:52 | 53.45728 | -26.44343 | 40226 ft | 467 kts | 76° |
| 2026-05-05 22:52 | 53.46919 | -26.33698 | 40224 ft | 467 kts | 77° |
| 2026-05-05 22:53 | 53.48106 | -26.22991 | 40221 ft | 467 kts | 77° |
| 2026-05-05 22:53 | 53.49277 | -26.12350 | 40223 ft | 467 kts | 77° |
| 2026-05-05 22:54 | 53.50444 | -26.01663 | 40223 ft | 466 kts | 77° |
| 2026-05-05 22:54 | 53.51606 | -25.90920 | 40225 ft | 466 kts | 77° |
| 2026-05-05 22:55 | 53.52751 | -25.80255 | 40229 ft | 466 kts | 77° |
| 2026-05-05 22:55 | 53.53878 | -25.69633 | 40224 ft | 465 kts | 77° |
| 2026-05-05 22:56 | 53.55008 | -25.58900 | 40219 ft | 465 kts | 77° |
| 2026-05-05 22:56 | 53.56120 | -25.48240 | 40218 ft | 465 kts | 77° |
| 2026-05-05 22:57 | 53.57222 | -25.37591 | 40216 ft | 465 kts | 77° |
| 2026-05-05 22:57 | 53.58321 | -25.26863 | 40214 ft | 464 kts | 78° |
| 2026-05-05 22:58 | 53.59405 | -25.16186 | 40211 ft | 464 kts | 78° |
| 2026-05-05 22:58 | 53.60477 | -25.05527 | 40208 ft | 464 kts | 78° |
| 2026-05-05 22:59 | 53.61544 | -24.94808 | 40197 ft | 464 kts | 78° |
| 2026-05-05 22:59 | 53.62600 | -24.84117 | 40195 ft | 464 kts | 78° |
| 2026-05-05 23:00 | 53.64157 | -24.68145 | 40202 ft | 463 kts | 77° |
| 2026-05-05 23:00 | 53.65189 | -24.57441 | 40196 ft | 463 kts | 77° |
| 2026-05-05 23:01 | 53.66207 | -24.46767 | 40195 ft | 462 kts | 77° |
| 2026-05-05 23:01 | 53.67216 | -24.36096 | 40196 ft | 462 kts | 77° |
| 2026-05-05 23:02 | 53.68214 | -24.25418 | 40196 ft | 462 kts | 78° |
| 2026-05-05 23:02 | 53.69199 | -24.14784 | 40192 ft | 461 kts | 78° |
| 2026-05-05 23:03 | 53.70181 | -24.04070 | 40194 ft | 461 kts | 78° |
| 2026-05-05 23:03 | 53.71151 | -23.93387 | 40193 ft | 461 kts | 78° |
| 2026-05-05 23:04 | 53.72107 | -23.82728 | 40186 ft | 461 kts | 78° |
| 2026-05-05 23:04 | 53.73055 | -23.72072 | 40188 ft | 460 kts | 78° |
| 2026-05-05 23:05 | 53.73991 | -23.61434 | 40183 ft | 460 kts | 78° |
| 2026-05-05 23:05 | 53.74920 | -23.50766 | 40189 ft | 459 kts | 78° |
| 2026-05-05 23:06 | 53.75834 | -23.40172 | 40188 ft | 459 kts | 78° |
| 2026-05-05 23:06 | 53.76740 | -23.29524 | 40194 ft | 459 kts | 78° |
| 2026-05-05 23:07 | 53.77635 | -23.18890 | 40197 ft | 460 kts | 78° |
| 2026-05-05 23:07 | 53.78528 | -23.08196 | 40192 ft | 460 kts | 78° |
| 2026-05-05 23:08 | 53.79413 | -22.97495 | 40177 ft | 460 kts | 78° |
| 2026-05-05 23:08 | 53.80284 | -22.86758 | 40185 ft | 459 kts | 78° |
| 2026-05-05 23:09 | 53.81145 | -22.76067 | 40187 ft | 459 kts | 78° |
| 2026-05-05 23:09 | 53.81992 | -22.65440 | 40185 ft | 459 kts | 78° |
| 2026-05-05 23:10 | 53.82830 | -22.54787 | 40197 ft | 458 kts | 78° |
| 2026-05-05 23:10 | 53.83661 | -22.44129 | 40184 ft | 458 kts | 78° |
| 2026-05-05 23:11 | 53.84481 | -22.33474 | 40185 ft | 458 kts | 79° |
| 2026-05-05 23:11 | 53.85293 | -22.22789 | 40188 ft | 457 kts | 79° |
| 2026-05-05 23:12 | 53.86093 | -22.12127 | 40178 ft | 457 kts | 79° |
| 2026-05-05 23:12 | 53.86883 | -22.01455 | 40181 ft | 457 kts | 79° |
| 2026-05-05 23:13 | 53.87663 | -21.90813 | 40189 ft | 457 kts | 79° |
| 2026-05-05 23:13 | 53.88439 | -21.80104 | 40187 ft | 457 kts | 79° |
| 2026-05-05 23:14 | 53.89197 | -21.69488 | 40182 ft | 457 kts | 79° |
| 2026-05-05 23:14 | 53.89946 | -21.58856 | 40190 ft | 457 kts | 79° |
| 2026-05-05 23:15 | 53.90688 | -21.48176 | 40186 ft | 457 kts | 79° |
| 2026-05-05 23:15 | 53.91425 | -21.37467 | 40184 ft | 458 kts | 79° |
| 2026-05-05 23:16 | 53.92149 | -21.26798 | 40181 ft | 458 kts | 80° |
| 2026-05-05 23:16 | 53.92866 | -21.16076 | 40176 ft | 458 kts | 80° |
| 2026-05-05 23:17 | 53.93570 | -21.05379 | 40169 ft | 458 kts | 80° |
| 2026-05-05 23:17 | 53.94270 | -20.94634 | 40173 ft | 458 kts | 79° |
| 2026-05-05 23:18 | 53.94955 | -20.83943 | 40163 ft | 458 kts | 79° |
| 2026-05-05 23:18 | 53.95634 | -20.73208 | 40161 ft | 458 kts | 80° |
| 2026-05-05 23:19 | 53.96304 | -20.62443 | 40159 ft | 458 kts | 80° |
| 2026-05-05 23:19 | 53.96959 | -20.51771 | 40152 ft | 458 kts | 80° |
| 2026-05-05 23:20 | 53.97609 | -20.41027 | 40154 ft | 458 kts | 80° |
| 2026-05-05 23:20 | 53.98249 | -20.30294 | 40147 ft | 458 kts | 81° |
| 2026-05-05 23:21 | 53.98875 | -20.19600 | 40140 ft | 458 kts | 81° |
| 2026-05-05 23:21 | 53.99498 | -20.08811 | 40147 ft | 458 kts | 81° |
| 2026-05-05 23:22 | 54.00026 | -19.98084 | 40142 ft | 459 kts | 83° |
| 2026-05-05 23:22 | 54.00260 | -19.87232 | 40148 ft | 459 kts | 84° |
| 2026-05-05 23:23 | 54.00469 | -19.76367 | 40151 ft | 459 kts | 84° |
| 2026-05-05 23:23 | 54.00667 | -19.65549 | 40146 ft | 459 kts | 84° |
| 2026-05-05 23:24 | 54.00855 | -19.54716 | 40148 ft | 459 kts | 84° |
| 2026-05-05 23:24 | 54.01033 | -19.43905 | 40145 ft | 459 kts | 84° |
| 2026-05-05 23:25 | 54.01204 | -19.33084 | 40146 ft | 459 kts | 85° |
| 2026-05-05 23:25 | 54.01363 | -19.22234 | 40146 ft | 459 kts | 85° |
| 2026-05-05 23:26 | 54.01512 | -19.11420 | 40144 ft | 459 kts | 85° |
| 2026-05-05 23:26 | 54.01654 | -19.00608 | 40143 ft | 459 kts | 85° |
| 2026-05-05 23:27 | 54.01784 | -18.89808 | 40146 ft | 458 kts | 85° |
| 2026-05-05 23:27 | 54.01906 | -18.78999 | 40149 ft | 458 kts | 85° |
| 2026-05-05 23:28 | 54.02015 | -18.68225 | 40146 ft | 459 kts | 85° |
| 2026-05-05 23:28 | 54.02116 | -18.57393 | 40147 ft | 459 kts | 85° |
| 2026-05-05 23:29 | 54.02206 | -18.46600 | 40148 ft | 459 kts | 85° |
| 2026-05-05 23:29 | 54.02290 | -18.35807 | 40149 ft | 459 kts | 85° |
| 2026-05-05 23:30 | 54.02362 | -18.25004 | 40147 ft | 459 kts | 86° |
| 2026-05-05 23:30 | 54.02423 | -18.14149 | 40148 ft | 459 kts | 86° |
| 2026-05-05 23:31 | 54.02478 | -18.03328 | 40145 ft | 459 kts | 86° |
| 2026-05-05 23:31 | 54.02518 | -17.92463 | 40151 ft | 459 kts | 86° |
| 2026-05-05 23:32 | 54.02552 | -17.81658 | 40149 ft | 459 kts | 86° |
| 2026-05-05 23:32 | 54.02576 | -17.70812 | 40147 ft | 459 kts | 86° |
| 2026-05-05 23:33 | 54.02592 | -17.60054 | 40147 ft | 459 kts | 86° |
| 2026-05-05 23:33 | 54.02593 | -17.49194 | 40149 ft | 459 kts | 86° |
| 2026-05-05 23:34 | 54.02588 | -17.38411 | 40148 ft | 460 kts | 86° |
| 2026-05-05 23:34 | 54.02573 | -17.27567 | 40147 ft | 460 kts | 88° |
| 2026-05-05 23:35 | 54.02549 | -17.16727 | 40145 ft | 460 kts | 88° |
| 2026-05-05 23:35 | 54.02513 | -17.05846 | 40147 ft | 460 kts | 88° |
| 2026-05-05 23:36 | 54.02469 | -16.94970 | 40148 ft | 460 kts | 88° |
| 2026-05-05 23:36 | 54.02414 | -16.84144 | 40148 ft | 460 kts | 88° |
| 2026-05-05 23:37 | 54.02350 | -16.73231 | 40149 ft | 461 kts | 88° |
| 2026-05-05 23:37 | 54.02277 | -16.62396 | 40149 ft | 461 kts | 88° |
| 2026-05-05 23:38 | 54.02193 | -16.51535 | 40151 ft | 462 kts | 88° |
| 2026-05-05 23:38 | 54.02098 | -16.40686 | 40152 ft | 462 kts | 88° |
| 2026-05-05 23:39 | 54.01994 | -16.29771 | 40148 ft | 462 kts | 89° |
| 2026-05-05 23:39 | 54.01881 | -16.18888 | 40148 ft | 462 kts | 89° |
| 2026-05-05 23:40 | 54.01757 | -16.07963 | 40149 ft | 462 kts | 89° |
| 2026-05-05 23:40 | 54.01624 | -15.97087 | 40148 ft | 463 kts | 89° |
| 2026-05-05 23:41 | 54.01481 | -15.86140 | 40151 ft | 463 kts | 89° |
| 2026-05-05 23:41 | 54.01326 | -15.75187 | 40152 ft | 463 kts | 89° |
| 2026-05-05 23:42 | 54.01163 | -15.64261 | 40151 ft | 464 kts | 89° |
| 2026-05-05 23:42 | 54.00989 | -15.53332 | 40153 ft | 464 kts | 89° |
| 2026-05-05 23:43 | 54.00807 | -15.42445 | 40150 ft | 465 kts | 89° |
| 2026-05-05 23:43 | 54.00613 | -15.31481 | 40148 ft | 465 kts | 90° |
| 2026-05-05 23:44 | 54.00407 | -15.20459 | 40141 ft | 465 kts | 90° |
| 2026-05-05 23:44 | 54.00193 | -15.09521 | 40132 ft | 466 kts | 90° |
| 2026-05-05 23:45 | 53.99990 | -14.98513 | 40127 ft | 466 kts | 88° |
| 2026-05-05 23:45 | 54.00045 | -14.87566 | 40126 ft | 466 kts | 87° |
| 2026-05-05 23:46 | 54.00076 | -14.76524 | 40123 ft | 466 kts | 87° |
| 2026-05-05 23:46 | 54.00094 | -14.65621 | 40123 ft | 466 kts | 88° |
| 2026-05-05 23:47 | 54.00102 | -14.54598 | 40121 ft | 466 kts | 87° |
| 2026-05-05 23:47 | 54.00102 | -14.43639 | 40120 ft | 466 kts | 87° |
| 2026-05-05 23:48 | 54.00091 | -14.32681 | 40116 ft | 466 kts | 88° |
| 2026-05-05 23:48 | 54.00072 | -14.21653 | 40111 ft | 466 kts | 88° |
| 2026-05-05 23:49 | 54.00041 | -14.10631 | 40112 ft | 466 kts | 88° |
| 2026-05-05 23:49 | 53.99685 | -13.99702 | 40080 ft | 470 kts | 104° |
| 2026-05-05 23:50 | 53.98425 | -13.94529 | 40219 ft | 473 kts | 115° |
| 2026-05-05 23:50 | 53.96975 | -13.89509 | 40455 ft | 474 kts | 115° |
| 2026-05-05 23:50 | 53.95544 | -13.84547 | 40736 ft | 474 kts | 115° |
| 2026-05-05 23:50 | 53.94087 | -13.79511 | 41007 ft | 473 kts | 115° |
| 2026-05-05 23:51 | 53.92643 | -13.74532 | 41263 ft | 473 kts | 115° |
| 2026-05-05 23:51 | 53.91177 | -13.69488 | 41529 ft | 472 kts | 115° |
| 2026-05-05 23:51 | 53.89736 | -13.64543 | 41757 ft | 473 kts | 115° |
| 2026-05-05 23:51 | 53.88278 | -13.59545 | 41979 ft | 473 kts | 115° |
| 2026-05-05 23:52 | 53.86817 | -13.54548 | 42212 ft | 473 kts | 115° |
| 2026-05-05 23:52 | 53.85355 | -13.49563 | 42452 ft | 472 kts | 115° |
| 2026-05-05 23:52 | 53.83900 | -13.44610 | 42682 ft | 472 kts | 115° |
| 2026-05-05 23:52 | 53.82431 | -13.39624 | 42890 ft | 472 kts | 115° |
| 2026-05-05 23:53 | 53.80980 | -13.34704 | 43090 ft | 472 kts | 116° |
| 2026-05-05 23:53 | 53.79513 | -13.29741 | 43276 ft | 473 kts | 116° |
| 2026-05-05 23:53 | 53.78040 | -13.24769 | 43468 ft | 473 kts | 116° |
| 2026-05-05 23:53 | 53.76563 | -13.19794 | 43658 ft | 473 kts | 116° |
| 2026-05-05 23:54 | 53.75094 | -13.14854 | 43852 ft | 472 kts | 116° |
| 2026-05-05 23:54 | 53.73628 | -13.09935 | 44034 ft | 472 kts | 116° |
| 2026-05-05 23:54 | 53.72144 | -13.04966 | 44234 ft | 472 kts | 116° |
| 2026-05-05 23:54 | 53.70657 | -12.99994 | 44424 ft | 472 kts | 116° |
| 2026-05-05 23:55 | 53.69185 | -12.95088 | 44644 ft | 472 kts | 116° |
| 2026-05-05 23:55 | 53.67690 | -12.90114 | 44840 ft | 471 kts | 116° |
| 2026-05-05 23:55 | 53.66224 | -12.85249 | 45029 ft | 471 kts | 116° |
| 2026-05-05 23:55 | 53.64728 | -12.80297 | 45097 ft | 474 kts | 116° |
| 2026-05-05 23:56 | 53.61760 | -12.70496 | 45109 ft | 472 kts | 116° |
| 2026-05-05 23:56 | 53.58774 | -12.60669 | 45108 ft | 470 kts | 116° |
| 2026-05-05 23:57 | 53.55803 | -12.50933 | 45108 ft | 468 kts | 116° |
| 2026-05-05 23:57 | 53.52819 | -12.41196 | 45109 ft | 465 kts | 116° |
| 2026-05-05 23:58 | 53.49870 | -12.31609 | 45109 ft | 463 kts | 117° |
| 2026-05-05 23:58 | 53.46894 | -12.21983 | 45110 ft | 461 kts | 117° |
| 2026-05-05 23:59 | 53.43951 | -12.12496 | 45109 ft | 459 kts | 117° |
| 2026-05-05 23:59 | 53.40991 | -12.02989 | 45107 ft | 458 kts | 117° |
| 2026-05-06 00:00 | 53.38045 | -11.93567 | 45111 ft | 456 kts | 117° |
| 2026-05-06 00:00 | 53.35102 | -11.84186 | 45109 ft | 455 kts | 117° |
| 2026-05-06 00:01 | 53.32170 | -11.74878 | 45107 ft | 453 kts | 117° |
| 2026-05-06 00:01 | 53.29219 | -11.65551 | 45109 ft | 452 kts | 117° |
| 2026-05-06 00:02 | 53.26275 | -11.56278 | 45105 ft | 451 kts | 117° |
| 2026-05-06 00:02 | 53.23337 | -11.47057 | 45110 ft | 450 kts | 117° |
| 2026-05-06 00:03 | 53.20392 | -11.37851 | 45114 ft | 449 kts | 117° |
| 2026-05-06 00:03 | 53.17443 | -11.28670 | 45112 ft | 448 kts | 118° |
| 2026-05-06 00:04 | 53.14507 | -11.19560 | 45113 ft | 447 kts | 118° |
| 2026-05-06 00:04 | 53.11562 | -11.10459 | 45113 ft | 446 kts | 118° |
| 2026-05-06 00:05 | 53.07131 | -10.96826 | 45110 ft | 445 kts | 118° |
| 2026-05-06 00:06 | 53.04190 | -10.87822 | 45112 ft | 444 kts | 118° |
| 2026-05-06 00:06 | 53.01230 | -10.78795 | 45106 ft | 443 kts | 118° |
| 2026-05-06 00:07 | 52.98271 | -10.69801 | 45094 ft | 443 kts | 118° |
| 2026-05-06 00:07 | 52.95322 | -10.60867 | 45092 ft | 442 kts | 118° |
| 2026-05-06 00:08 | 52.92368 | -10.51950 | 45088 ft | 441 kts | 118° |
| 2026-05-06 00:08 | 52.89399 | -10.43021 | 45091 ft | 441 kts | 118° |
| 2026-05-06 00:09 | 52.86437 | -10.34147 | 45087 ft | 440 kts | 118° |
| 2026-05-06 00:09 | 52.83478 | -10.25314 | 45085 ft | 439 kts | 118° |
| 2026-05-06 00:10 | 52.80497 | -10.16448 | 45085 ft | 438 kts | 118° |
| 2026-05-06 00:10 | 52.77535 | -10.07665 | 45084 ft | 437 kts | 118° |
| 2026-05-06 00:11 | 52.74571 | -9.98911 | 45082 ft | 437 kts | 119° |
| 2026-05-06 00:11 | 52.71604 | -9.90180 | 45082 ft | 436 kts | 119° |
| 2026-05-06 00:12 | 52.68611 | -9.81401 | 45080 ft | 435 kts | 119° |
| 2026-05-06 00:12 | 52.65647 | -9.72740 | 45082 ft | 435 kts | 119° |
| 2026-05-06 00:13 | 52.62659 | -9.64037 | 45083 ft | 435 kts | 119° |
| 2026-05-06 00:13 | 52.59663 | -9.55344 | 45081 ft | 435 kts | 119° |
| 2026-05-06 00:14 | 52.56668 | -9.46682 | 45073 ft | 434 kts | 119° |
| 2026-05-06 00:14 | 52.53678 | -9.38063 | 45071 ft | 434 kts | 119° |
| 2026-05-06 00:15 | 52.50668 | -9.29415 | 45067 ft | 434 kts | 120° |
| 2026-05-06 00:15 | 52.47667 | -9.20829 | 45062 ft | 433 kts | 120° |
| 2026-05-06 00:16 | 52.44662 | -9.12257 | 45061 ft | 433 kts | 120° |
| 2026-05-06 00:16 | 52.41652 | -9.03702 | 45060 ft | 433 kts | 120° |
| 2026-05-06 00:17 | 52.38636 | -8.95159 | 45058 ft | 432 kts | 120° |
| 2026-05-06 00:17 | 52.35613 | -8.86623 | 45052 ft | 432 kts | 120° |
| 2026-05-06 00:18 | 52.32598 | -8.78139 | 45050 ft | 432 kts | 120° |
| 2026-05-06 00:18 | 52.29551 | -8.69591 | 45039 ft | 432 kts | 120° |
| 2026-05-06 00:19 | 52.26528 | -8.61142 | 45042 ft | 432 kts | 120° |
| 2026-05-06 00:19 | 52.23485 | -8.52672 | 45038 ft | 432 kts | 120° |
| 2026-05-06 00:20 | 52.20430 | -8.44192 | 45039 ft | 432 kts | 120° |
| 2026-05-06 00:20 | 52.17377 | -8.35743 | 45034 ft | 432 kts | 120° |
| 2026-05-06 00:21 | 52.14309 | -8.27280 | 45040 ft | 432 kts | 121° |
| 2026-05-06 00:21 | 52.11233 | -8.18825 | 45029 ft | 432 kts | 121° |
| 2026-05-06 00:22 | 52.08166 | -8.10423 | 45020 ft | 433 kts | 121° |
| 2026-05-06 00:22 | 52.05085 | -8.02016 | 45031 ft | 433 kts | 121° |
| 2026-05-06 00:23 | 52.01996 | -7.93611 | 45023 ft | 433 kts | 121° |
| 2026-05-06 00:23 | 51.98893 | -7.85197 | 45022 ft | 433 kts | 121° |
| 2026-05-06 00:24 | 51.95795 | -7.76821 | 45024 ft | 433 kts | 121° |
| 2026-05-06 00:24 | 51.92701 | -7.68483 | 45026 ft | 433 kts | 121° |
| 2026-05-06 00:25 | 51.89576 | -7.60094 | 45029 ft | 433 kts | 121° |
| 2026-05-06 00:25 | 51.86462 | -7.51759 | 45023 ft | 433 kts | 121° |
| 2026-05-06 00:26 | 51.83338 | -7.43428 | 45027 ft | 432 kts | 121° |
| 2026-05-06 00:26 | 51.80219 | -7.35132 | 45025 ft | 432 kts | 121° |
| 2026-05-06 00:27 | 51.77091 | -7.26839 | 45021 ft | 432 kts | 122° |
| 2026-05-06 00:27 | 51.73953 | -7.18551 | 45024 ft | 432 kts | 122° |
| 2026-05-06 00:28 | 51.70815 | -7.10288 | 45025 ft | 432 kts | 122° |
| 2026-05-06 00:28 | 51.67676 | -7.02049 | 45023 ft | 431 kts | 122° |
| 2026-05-06 00:29 | 51.64523 | -6.93799 | 45023 ft | 431 kts | 122° |
| 2026-05-06 00:29 | 51.61581 | -6.85421 | 45006 ft | 430 kts | 106° |
| 2026-05-06 00:30 | 51.60194 | -6.76107 | 45029 ft | 429 kts | 103° |
| 2026-05-06 00:30 | 51.58726 | -6.66802 | 45028 ft | 429 kts | 104° |
| 2026-05-06 00:31 | 51.57242 | -6.57475 | 45026 ft | 429 kts | 104° |
| 2026-05-06 00:31 | 51.55759 | -6.48209 | 45026 ft | 429 kts | 104° |
| 2026-05-06 00:32 | 51.54273 | -6.38978 | 45027 ft | 429 kts | 104° |
| 2026-05-06 00:32 | 51.52765 | -6.29668 | 45024 ft | 429 kts | 104° |
| 2026-05-06 00:33 | 51.51257 | -6.20400 | 45025 ft | 429 kts | 104° |
| 2026-05-06 00:33 | 51.49744 | -6.11157 | 45025 ft | 429 kts | 104° |
| 2026-05-06 00:34 | 51.48212 | -6.01848 | 45027 ft | 429 kts | 104° |
| 2026-05-06 00:34 | 51.46682 | -5.92602 | 45028 ft | 429 kts | 104° |
| 2026-05-06 00:35 | 51.45145 | -5.83363 | 45024 ft | 429 kts | 104° |
| 2026-05-06 00:35 | 51.43598 | -5.74117 | 45025 ft | 429 kts | 104° |
| 2026-05-06 00:36 | 51.42039 | -5.64846 | 45024 ft | 429 kts | 105° |
| 2026-05-06 00:36 | 51.40474 | -5.55587 | 45022 ft | 430 kts | 105° |
| 2026-05-06 00:37 | 51.38902 | -5.46339 | 45021 ft | 430 kts | 105° |
| 2026-05-06 00:37 | 51.37322 | -5.37096 | 45020 ft | 430 kts | 105° |
| 2026-05-06 00:38 | 51.35746 | -5.27918 | 45018 ft | 430 kts | 105° |
| 2026-05-06 00:38 | 51.34152 | -5.18687 | 45015 ft | 430 kts | 105° |
| 2026-05-06 00:39 | 51.32545 | -5.09424 | 45003 ft | 431 kts | 105° |
| 2026-05-06 00:39 | 51.31160 | -5.00118 | 45007 ft | 430 kts | 96° |
| 2026-05-06 00:40 | 51.30423 | -4.90596 | 45004 ft | 430 kts | 97° |
| 2026-05-06 00:40 | 51.29652 | -4.81091 | 44994 ft | 431 kts | 97° |
| 2026-05-06 00:41 | 51.28871 | -4.71583 | 44997 ft | 431 kts | 97° |
| 2026-05-06 00:41 | 51.28080 | -4.62043 | 44993 ft | 431 kts | 97° |
| 2026-05-06 00:42 | 51.27282 | -4.52508 | 44992 ft | 431 kts | 97° |
| 2026-05-06 00:42 | 51.26479 | -4.43012 | 44984 ft | 432 kts | 97° |
| 2026-05-06 00:43 | 51.25664 | -4.33482 | 44979 ft | 432 kts | 98° |
| 2026-05-06 00:43 | 51.24838 | -4.23913 | 44976 ft | 432 kts | 98° |
| 2026-05-06 00:44 | 51.24010 | -4.14411 | 44973 ft | 432 kts | 98° |
| 2026-05-06 00:44 | 51.23172 | -4.04890 | 44978 ft | 432 kts | 98° |
| 2026-05-06 00:45 | 51.22323 | -3.95331 | 44986 ft | 432 kts | 98° |
| 2026-05-06 00:45 | 51.21468 | -3.85792 | 44986 ft | 432 kts | 98° |
| 2026-05-06 00:46 | 51.20607 | -3.76290 | 44983 ft | 433 kts | 98° |
| 2026-05-06 00:46 | 51.19733 | -3.66728 | 44985 ft | 433 kts | 98° |
| 2026-05-06 00:47 | 51.18855 | -3.57197 | 44983 ft | 433 kts | 98° |
| 2026-05-06 00:47 | 51.17966 | -3.47645 | 44976 ft | 434 kts | 98° |
| 2026-05-06 00:48 | 51.17073 | -3.38138 | 44976 ft | 434 kts | 98° |
| 2026-05-06 00:48 | 51.16167 | -3.28581 | 44977 ft | 434 kts | 99° |
| 2026-05-06 00:49 | 51.15252 | -3.19008 | 44981 ft | 435 kts | 99° |
| 2026-05-06 00:49 | 51.14330 | -3.09454 | 44967 ft | 435 kts | 99° |
| 2026-05-06 00:50 | 51.13395 | -2.99845 | 44969 ft | 435 kts | 99° |
| 2026-05-06 00:50 | 51.12458 | -2.90303 | 44973 ft | 435 kts | 99° |
| 2026-05-06 00:51 | 51.11512 | -2.80752 | 44975 ft | 435 kts | 99° |
| 2026-05-06 00:51 | 51.10560 | -2.71203 | 44978 ft | 435 kts | 99° |
| 2026-05-06 00:52 | 51.09601 | -2.61691 | 44977 ft | 435 kts | 99° |
| 2026-05-06 00:52 | 51.08630 | -2.52157 | 44977 ft | 435 kts | 99° |
| 2026-05-06 00:53 | 51.07655 | -2.42641 | 44973 ft | 435 kts | 99° |
| 2026-05-06 00:53 | 51.06667 | -2.33060 | 44970 ft | 435 kts | 100° |
| 2026-05-06 00:54 | 51.05679 | -2.23566 | 44972 ft | 435 kts | 100° |
| 2026-05-06 00:54 | 51.04675 | -2.14019 | 44962 ft | 435 kts | 100° |
| 2026-05-06 00:55 | 51.03672 | -2.04551 | 44957 ft | 435 kts | 100° |
| 2026-05-06 00:55 | 51.03305 | -1.94985 | 44979 ft | 435 kts | 87° |
| 2026-05-06 00:56 | 51.03582 | -1.85320 | 44944 ft | 436 kts | 88° |
| 2026-05-06 00:56 | 51.03829 | -1.75698 | 44946 ft | 436 kts | 88° |
| 2026-05-06 00:57 | 51.04070 | -1.66005 | 44954 ft | 436 kts | 88° |
| 2026-05-06 00:57 | 51.04302 | -1.56364 | 44956 ft | 436 kts | 88° |
| 2026-05-06 00:58 | 51.04527 | -1.46671 | 44955 ft | 436 kts | 88° |
| 2026-05-06 00:58 | 51.04743 | -1.37010 | 44952 ft | 436 kts | 88° |
| 2026-05-06 00:59 | 51.04952 | -1.27319 | 44951 ft | 437 kts | 89° |
| 2026-05-06 00:59 | 51.05154 | -1.17651 | 44952 ft | 437 kts | 89° |
| 2026-05-06 01:00 | 51.05346 | -1.08015 | 44946 ft | 437 kts | 89° |
| 2026-05-06 01:00 | 51.05530 | -0.98295 | 44948 ft | 437 kts | 89° |
| 2026-05-06 01:01 | 51.05707 | -0.88601 | 44949 ft | 437 kts | 89° |
| 2026-05-06 01:01 | 51.05877 | -0.78908 | 44950 ft | 437 kts | 89° |
| 2026-05-06 01:02 | 51.06038 | -0.69242 | 44954 ft | 438 kts | 89° |
| 2026-05-06 01:02 | 51.06192 | -0.59485 | 44951 ft | 438 kts | 89° |
| 2026-05-06 01:03 | 51.06337 | -0.49746 | 44949 ft | 439 kts | 89° |
| 2026-05-06 01:03 | 51.06474 | -0.39981 | 44950 ft | 439 kts | 89° |
| 2026-05-06 01:04 | 51.06603 | -0.30265 | 44950 ft | 439 kts | 89° |
| 2026-05-06 01:04 | 51.06724 | -0.20534 | 44951 ft | 439 kts | 89° |
| 2026-05-06 01:05 | 51.06837 | -0.10772 | 44951 ft | 440 kts | 89° |
| 2026-05-06 01:05 | 51.06944 | -0.00979 | 44957 ft | 440 kts | 90° |
| 2026-05-06 01:06 | 51.07265 | 0.08717 | 44946 ft | 440 kts | 82° |
| 2026-05-06 01:06 | 51.08054 | 0.18455 | 44926 ft | 441 kts | 83° |
| 2026-05-06 01:07 | 51.08783 | 0.28163 | 44917 ft | 441 kts | 83° |
| 2026-05-06 01:07 | 51.09499 | 0.37842 | 44923 ft | 441 kts | 83° |
| 2026-05-06 01:08 | 51.10210 | 0.47590 | 44920 ft | 441 kts | 83° |
| 2026-05-06 01:08 | 51.10914 | 0.57320 | 44919 ft | 441 kts | 84° |
| 2026-05-06 01:09 | 51.11605 | 0.67053 | 44923 ft | 441 kts | 84° |
| 2026-05-06 01:09 | 51.12289 | 0.76797 | 44924 ft | 441 kts | 84° |
| 2026-05-06 01:10 | 51.12961 | 0.86490 | 44918 ft | 441 kts | 84° |
| 2026-05-06 01:10 | 51.13626 | 0.96201 | 44926 ft | 441 kts | 84° |
| 2026-05-06 01:11 | 51.14290 | 1.06006 | 44928 ft | 441 kts | 84° |
| 2026-05-06 01:11 | 51.14938 | 1.15693 | 44923 ft | 441 kts | 84° |
| 2026-05-06 01:12 | 51.15586 | 1.25512 | 44913 ft | 441 kts | 84° |
| 2026-05-06 01:12 | 51.16224 | 1.35207 | 44911 ft | 442 kts | 83° |
| 2026-05-06 01:13 | 51.17453 | 1.44835 | 44911 ft | 442 kts | 78° |
| 2026-05-06 01:13 | 51.18729 | 1.54462 | 44905 ft | 443 kts | 78° |
| 2026-05-06 01:14 | 51.20634 | 1.68944 | 44903 ft | 443 kts | 79° |
| 2026-05-06 01:14 | 51.21890 | 1.78584 | 44902 ft | 443 kts | 79° |
| 2026-05-06 01:15 | 51.23141 | 1.88258 | 44890 ft | 444 kts | 79° |
| 2026-05-06 01:15 | 51.24386 | 1.97986 | 44892 ft | 444 kts | 81° |
| 2026-05-06 01:16 | 51.24521 | 2.02867 | 44918 ft | 440 kts | 95° |
| 2026-05-06 01:16 | 51.24276 | 2.07750 | 44894 ft | 441 kts | 95° |
| 2026-05-06 01:16 | 51.23807 | 2.17598 | 44891 ft | 441 kts | 95° |
| 2026-05-06 01:17 | 51.23330 | 2.27432 | 44892 ft | 442 kts | 95° |
| 2026-05-06 01:17 | 51.22818 | 2.37172 | 44885 ft | 441 kts | 100° |
| 2026-05-06 01:18 | 51.21814 | 2.41820 | 44912 ft | 435 kts | 122° |
| 2026-05-06 01:18 | 51.19990 | 2.45663 | 44933 ft | 432 kts | 132° |
| 2026-05-06 01:18 | 51.16063 | 2.52983 | 44903 ft | 433 kts | 132° |
| 2026-05-06 01:19 | 51.12130 | 2.60262 | 44893 ft | 433 kts | 132° |
| 2026-05-06 01:19 | 51.08473 | 2.67980 | 44904 ft | 435 kts | 120° |
| 2026-05-06 01:20 | 51.05568 | 2.76433 | 44890 ft | 436 kts | 121° |
| 2026-05-06 01:20 | 51.02600 | 2.84965 | 44873 ft | 436 kts | 121° |
| 2026-05-06 01:21 | 50.99645 | 2.93431 | 44872 ft | 437 kts | 121° |
| 2026-05-06 01:21 | 50.96679 | 3.01902 | 44869 ft | 437 kts | 120° |
| 2026-05-06 01:22 | 50.93718 | 3.10338 | 44865 ft | 437 kts | 121° |
| 2026-05-06 01:22 | 50.90736 | 3.18804 | 44858 ft | 438 kts | 121° |
| 2026-05-06 01:23 | 50.87730 | 3.27303 | 44860 ft | 438 kts | 121° |
| 2026-05-06 01:23 | 50.84729 | 3.35762 | 44861 ft | 439 kts | 121° |
| 2026-05-06 01:24 | 50.81721 | 3.44212 | 44851 ft | 439 kts | 121° |
| 2026-05-06 01:24 | 50.78695 | 3.52685 | 44851 ft | 440 kts | 121° |
| 2026-05-06 01:25 | 50.77187 | 3.56898 | 44734 ft | 435 kts | 121° |
| 2026-05-06 01:25 | 50.75680 | 3.61098 | 43911 ft | 443 kts | 121° |
| 2026-05-06 01:25 | 50.74151 | 3.65351 | 42848 ft | 449 kts | 122° |
| 2026-05-06 01:25 | 50.72576 | 3.69721 | 41540 ft | 458 kts | 121° |
| 2026-05-06 01:26 | 50.71001 | 3.74091 | 40114 ft | 468 kts | 121° |
| 2026-05-06 01:26 | 50.69384 | 3.78572 | 38775 ft | 471 kts | 121° |
| 2026-05-06 01:26 | 50.67758 | 3.83069 | 37818 ft | 468 kts | 121° |
| 2026-05-06 01:26 | 50.66159 | 3.87485 | 36982 ft | 461 kts | 121° |
| 2026-05-06 01:27 | 50.64574 | 3.91845 | 36134 ft | 455 kts | 121° |
| 2026-05-06 01:27 | 50.63023 | 3.96112 | 35159 ft | 450 kts | 120° |
| 2026-05-06 01:27 | 50.61452 | 4.00423 | 33956 ft | 448 kts | 120° |
| 2026-05-06 01:27 | 50.59933 | 4.04585 | 33288 ft | 428 kts | 120° |
| 2026-05-06 01:28 | 50.58478 | 4.08566 | 32566 ft | 414 kts | 120° |
| 2026-05-06 01:28 | 50.57025 | 4.12539 | 31874 ft | 412 kts | 119° |
| 2026-05-06 01:28 | 50.55604 | 4.16422 | 31220 ft | 408 kts | 119° |
| 2026-05-06 01:28 | 50.54176 | 4.20315 | 30571 ft | 404 kts | 119° |
| 2026-05-06 01:29 | 50.52788 | 4.24100 | 29971 ft | 398 kts | 119° |
| 2026-05-06 01:29 | 50.51394 | 4.27883 | 29370 ft | 397 kts | 119° |
| 2026-05-06 01:29 | 50.50001 | 4.31669 | 28742 ft | 398 kts | 119° |
| 2026-05-06 01:29 | 50.48618 | 4.35414 | 28037 ft | 400 kts | 119° |
| 2026-05-06 01:30 | 50.47197 | 4.39257 | 27307 ft | 400 kts | 119° |
| 2026-05-06 01:30 | 50.45841 | 4.43032 | 26644 ft | 388 kts | 114° |
| 2026-05-06 01:30 | 50.45224 | 4.47022 | 26083 ft | 366 kts | 94° |
| 2026-05-06 01:30 | 50.45040 | 4.50919 | 25587 ft | 355 kts | 94° |
| 2026-05-06 01:31 | 50.44833 | 4.54770 | 25107 ft | 355 kts | 94° |
| 2026-05-06 01:31 | 50.44633 | 4.58603 | 24594 ft | 352 kts | 95° |
| 2026-05-06 01:31 | 50.44429 | 4.62435 | 24030 ft | 350 kts | 94° |
| 2026-05-06 01:31 | 50.44224 | 4.66213 | 23468 ft | 349 kts | 95° |
| 2026-05-06 01:32 | 50.44022 | 4.70011 | 22899 ft | 348 kts | 95° |
| 2026-05-06 01:32 | 50.43814 | 4.73815 | 22343 ft | 346 kts | 95° |
| 2026-05-06 01:32 | 50.43612 | 4.77573 | 21808 ft | 343 kts | 95° |
| 2026-05-06 01:32 | 50.43407 | 4.81276 | 21310 ft | 338 kts | 95° |
| 2026-05-06 01:33 | 50.43203 | 4.84917 | 20831 ft | 332 kts | 95° |
| 2026-05-06 01:33 | 50.43010 | 4.88471 | 20353 ft | 327 kts | 95° |
| 2026-05-06 01:33 | 50.42814 | 4.91982 | 19878 ft | 323 kts | 96° |
| 2026-05-06 01:33 | 50.42617 | 4.95498 | 19400 ft | 319 kts | 95° |
| 2026-05-06 01:34 | 50.42419 | 4.98989 | 18892 ft | 325 kts | 96° |
| 2026-05-06 01:34 | 50.42216 | 5.02544 | 18393 ft | 331 kts | 97° |
| 2026-05-06 01:34 | 50.42013 | 5.06143 | 17844 ft | 336 kts | 96° |
| 2026-05-06 01:34 | 50.42188 | 5.09749 | 17247 ft | 330 kts | 72° |
| 2026-05-06 01:35 | 50.43357 | 5.12755 | 16671 ft | 320 kts | 46° |
| 2026-05-06 01:35 | 50.44929 | 5.15075 | 16174 ft | 309 kts | 46° |
| 2026-05-06 01:35 | 50.46439 | 5.17425 | 15657 ft | 299 kts | 45° |
| 2026-05-06 01:35 | 50.47887 | 5.19666 | 15174 ft | 291 kts | 46° |
| 2026-05-06 01:36 | 50.49324 | 5.21896 | 14691 ft | 291 kts | 46° |
| 2026-05-06 01:36 | 50.50757 | 5.24136 | 14196 ft | 292 kts | 45° |
| 2026-05-06 01:36 | 50.52193 | 5.26370 | 13705 ft | 292 kts | 46° |
| 2026-05-06 01:36 | 50.53625 | 5.28599 | 13199 ft | 292 kts | 46° |
| 2026-05-06 01:37 | 50.55004 | 5.30952 | 12659 ft | 291 kts | 58° |
| 2026-05-06 01:37 | 50.56168 | 5.33503 | 12112 ft | 293 kts | 43° |
| 2026-05-06 01:37 | 50.57849 | 5.35333 | 11580 ft | 298 kts | 39° |
| 2026-05-06 01:37 | 50.59342 | 5.37590 | 11002 ft | 302 kts | 45° |
| 2026-05-06 01:38 | 50.60855 | 5.39891 | 10387 ft | 306 kts | 43° |
| 2026-05-06 01:38 | 50.62680 | 5.41380 | 10061 ft | 287 kts | 9° |
| 2026-05-06 01:38 | 50.64554 | 5.41036 | 9982 ft | 260 kts | 333° |
| 2026-05-06 01:38 | 50.65890 | 5.39290 | 9414 ft | 256 kts | 301° |
| 2026-05-06 01:39 | 50.66347 | 5.36641 | 8726 ft | 255 kts | 264° |
| 2026-05-06 01:39 | 50.65724 | 5.34094 | 8103 ft | 252 kts | 228° |
| 2026-05-06 01:39 | 50.64341 | 5.32470 | 7506 ft | 250 kts | 208° |
| 2026-05-06 01:39 | 50.62826 | 5.31105 | 6888 ft | 251 kts | 208° |
| 2026-05-06 01:40 | 50.61315 | 5.29733 | 6283 ft | 251 kts | 208° |
| 2026-05-06 01:40 | 50.59815 | 5.28380 | 5690 ft | 251 kts | 208° |
| 2026-05-06 01:40 | 50.58310 | 5.27022 | 5107 ft | 250 kts | 208° |
| 2026-05-06 01:40 | 50.56836 | 5.25692 | 4943 ft | 242 kts | 208° |
| 2026-05-06 01:41 | 50.55365 | 5.24367 | 4887 ft | 243 kts | 208° |
| 2026-05-06 01:41 | 50.53893 | 5.23044 | 4815 ft | 245 kts | 208° |
| 2026-05-06 01:41 | 50.52424 | 5.21704 | 4730 ft | 242 kts | 211° |
| 2026-05-06 01:41 | 50.50930 | 5.20563 | 4271 ft | 237 kts | 186° |
| 2026-05-06 01:42 | 50.49413 | 5.21042 | 4106 ft | 212 kts | 142° |
| 2026-05-06 01:42 | 50.48640 | 5.22839 | 3992 ft | 188 kts | 96° |
| 2026-05-06 01:42 | 50.48922 | 5.24683 | 3912 ft | 167 kts | 51° |
| 2026-05-06 01:42 | 50.49858 | 5.25516 | 3769 ft | 154 kts | 10° |
| 2026-05-06 01:43 | 50.50898 | 5.25491 | 3612 ft | 147 kts | 0° |
| 2026-05-06 01:43 | 50.51841 | 5.25797 | 3503 ft | 138 kts | 36° |
| 2026-05-06 01:43 | 50.52537 | 5.26825 | 3366 ft | 139 kts | 45° |
| 2026-05-06 01:43 | 50.53215 | 5.27852 | 3178 ft | 132 kts | 44° |
| 2026-05-06 01:44 | 50.53864 | 5.28854 | 3003 ft | 131 kts | 45° |
| 2026-05-06 01:44 | 50.54501 | 5.29846 | 2949 ft | 125 kts | 45° |
| 2026-05-06 01:44 | 50.55107 | 5.30798 | 2791 ft | 123 kts | 44° |
| 2026-05-06 01:44 | 50.55714 | 5.31750 | 2633 ft | 120 kts | 45° |
| 2026-05-06 01:45 | 50.56291 | 5.32659 | 2479 ft | 117 kts | 45° |
| 2026-05-06 01:45 | 50.56868 | 5.33569 | 2336 ft | 118 kts | 43° |
| 2026-05-06 01:45 | 50.57447 | 5.34482 | 2186 ft | 118 kts | 43° |
| 2026-05-06 01:45 | 50.58037 | 5.35401 | 2031 ft | 119 kts | 42° |
| 2026-05-06 01:46 | 50.58617 | 5.36329 | 1866 ft | 118 kts | 44° |
| 2026-05-06 01:46 | 50.59195 | 5.37237 | 1704 ft | 117 kts | 42° |
| 2026-05-06 01:46 | 50.59770 | 5.38145 | 1542 ft | 117 kts | 41° |
| 2026-05-06 01:46 | 50.60344 | 5.39043 | 1386 ft | 116 kts | 43° |
| 2026-05-06 01:47 | 50.60909 | 5.39940 | 1225 ft | 115 kts | 44° |
| 2026-05-06 01:47 | 50.61473 | 5.40834 | 1071 ft | 118 kts | 40° |
| 2026-05-06 01:47 | 50.62072 | 5.41754 | 902 ft | 120 kts | 43° |
| 2026-05-06 01:47 | 50.62655 | 5.42697 | 769 ft | 120 kts | 43° |
| 2026-05-06 01:48 | 50.63236 | 5.43632 | 632 ft | 114 kts | 41° |
| 2026-05-06 01:48 | 50.63749 | 5.44414 | 596 ft | 91 kts | 44° |
| 2026-05-06 01:48 | 50.64142 | 5.45047 | 585 ft | 59 kts | 47° |
| 2026-05-06 01:48 | 50.64283 | 5.45268 | 583 ft | 21 kts | 46° |
| 2026-05-06 01:49 | 50.64381 | 5.45441 | 586 ft | 20 kts | 68° |
| 2026-05-06 01:49 | 50.64389 | 5.45650 | 591 ft | 18 kts | 91° |
| 2026-05-06 01:49 | 50.64398 | 5.45807 | 596 ft | 7 kts | 61° |
| 2026-05-06 01:49 | 50.64426 | 5.45864 | 596 ft | 4 kts | 55° |
| 2026-05-06 01:50 | 50.64418 | 5.45893 | 597 ft | 2 kts | 137° |
| 2026-05-06 01:50 | 50.64411 | 5.45902 | 598 ft | 1 kts | 148° |
| 2026-05-06 01:50 | 50.64399 | 5.45916 | 598 ft | 2 kts | 135° |
| 2026-05-06 01:50 | 50.64386 | 5.45936 | 599 ft | 3 kts | 135° |
| 2026-05-06 01:51 | 50.64376 | 5.45951 | 600 ft | 0 kts | 135° |